sensor_id;sensor_type;location;lat;lon;timestamp;P1;durP1;ratioP1;P2;durP2;ratioP2
20367;SDS011;10343;52.402;9.796;2022-10-18T00:00:57;5.93;;;0.35;;
20367;SDS011;10343;52.402;9.796;2022-10-18T00:03:26;6.10;;;0.30;;
20367;SDS011;10343;52.402;9.796;2022-10-18T00:05:54;5.35;;;0.30;;
20367;SDS011;10343;52.402;9.796;2022-10-18T00:08:22;10.75;;;0.38;;
20367;SDS011;10343;52.402;9.796;2022-10-18T00:10:51;10.13;;;0.52;;
20367;SDS011;10343;52.402;9.796;2022-10-18T00:13:20;8.38;;;0.60;;
20367;SDS011;10343;52.402;9.796;2022-10-18T00:15:49;11.93;;;0.40;;
20367;SDS011;10343;52.402;9.796;2022-10-18T00:18:18;6.18;;;0.50;;
20367;SDS011;10343;52.402;9.796;2022-10-18T00:20:56;6.75;;;0.77;;
20367;SDS011;10343;52.402;9.796;2022-10-18T00:23:25;8.02;;;0.30;;
20367;SDS011;10343;52.402;9.796;2022-10-18T00:25:57;9.60;;;0.65;;
20367;SDS011;10343;52.402;9.796;2022-10-18T00:28:26;8.80;;;0.63;;
20367;SDS011;10343;52.402;9.796;2022-10-18T00:30:55;8.23;;;0.45;;
20367;SDS011;10343;52.402;9.796;2022-10-18T00:33:23;8.65;;;0.35;;
20367;SDS011;10343;52.402;9.796;2022-10-18T00:35:51;10.32;;;0.40;;
20367;SDS011;10343;52.402;9.796;2022-10-18T00:38:20;10.07;;;0.30;;
20367;SDS011;10343;52.402;9.796;2022-10-18T00:40:48;6.35;;;0.40;;
20367;SDS011;10343;52.402;9.796;2022-10-18T00:43:16;10.38;;;0.40;;
20367;SDS011;10343;52.402;9.796;2022-10-18T00:45:44;10.05;;;0.30;;
20367;SDS011;10343;52.402;9.796;2022-10-18T00:48:12;6.82;;;0.45;;
20367;SDS011;10343;52.402;9.796;2022-10-18T00:50:42;10.65;;;0.80;;
20367;SDS011;10343;52.402;9.796;2022-10-18T00:53:11;7.22;;;0.88;;
20367;SDS011;10343;52.402;9.796;2022-10-18T00:55:44;8.15;;;0.35;;
20367;SDS011;10343;52.402;9.796;2022-10-18T00:58:13;7.40;;;0.55;;
20367;SDS011;10343;52.402;9.796;2022-10-18T01:00:43;8.13;;;0.98;;
20367;SDS011;10343;52.402;9.796;2022-10-18T01:03:11;6.80;;;0.30;;
20367;SDS011;10343;52.402;9.796;2022-10-18T01:05:40;8.52;;;0.77;;
20367;SDS011;10343;52.402;9.796;2022-10-18T01:08:15;9.43;;;0.60;;
20367;SDS011;10343;52.402;9.796;2022-10-18T01:10:54;8.13;;;0.30;;
20367;SDS011;10343;52.402;9.796;2022-10-18T01:13:35;9.23;;;0.50;;
20367;SDS011;10343;52.402;9.796;2022-10-18T01:16:15;8.23;;;0.50;;
20367;SDS011;10343;52.402;9.796;2022-10-18T01:18:49;8.60;;;0.98;;
20367;SDS011;10343;52.402;9.796;2022-10-18T01:21:29;6.68;;;0.50;;
20367;SDS011;10343;52.402;9.796;2022-10-18T01:27:12;7.68;;;0.45;;
20367;SDS011;10343;52.402;9.796;2022-10-18T01:30:15;6.90;;;0.40;;
20367;SDS011;10343;52.402;9.796;2022-10-18T01:33:09;7.22;;;0.77;;
20367;SDS011;10343;52.402;9.796;2022-10-18T01:35:43;7.95;;;0.40;;
20367;SDS011;10343;52.402;9.796;2022-10-18T01:38:15;8.32;;;0.80;;
20367;SDS011;10343;52.402;9.796;2022-10-18T01:40:46;8.80;;;0.75;;
20367;SDS011;10343;52.402;9.796;2022-10-18T01:43:18;10.20;;;0.80;;
20367;SDS011;10343;52.402;9.796;2022-10-18T01:45:49;8.10;;;0.65;;
20367;SDS011;10343;52.402;9.796;2022-10-18T01:48:20;10.82;;;0.93;;
20367;SDS011;10343;52.402;9.796;2022-10-18T01:50:48;9.93;;;0.47;;
20367;SDS011;10343;52.402;9.796;2022-10-18T01:53:20;5.40;;;0.35;;
20367;SDS011;10343;52.402;9.796;2022-10-18T01:55:59;9.05;;;0.70;;
20367;SDS011;10343;52.402;9.796;2022-10-18T01:58:40;7.25;;;0.98;;
20367;SDS011;10343;52.402;9.796;2022-10-18T02:01:16;11.05;;;0.68;;
20367;SDS011;10343;52.402;9.796;2022-10-18T02:03:52;5.75;;;0.32;;
20367;SDS011;10343;52.402;9.796;2022-10-18T02:06:26;8.77;;;1.10;;
20367;SDS011;10343;52.402;9.796;2022-10-18T02:08:59;7.82;;;0.68;;
20367;SDS011;10343;52.402;9.796;2022-10-18T02:11:35;6.70;;;0.50;;
20367;SDS011;10343;52.402;9.796;2022-10-18T02:14:06;8.27;;;0.43;;
20367;SDS011;10343;52.402;9.796;2022-10-18T02:16:39;5.45;;;0.43;;
20367;SDS011;10343;52.402;9.796;2022-10-18T02:19:11;8.32;;;0.52;;
20367;SDS011;10343;52.402;9.796;2022-10-18T02:21:42;5.85;;;0.45;;
20367;SDS011;10343;52.402;9.796;2022-10-18T02:24:14;7.10;;;0.30;;
20367;SDS011;10343;52.402;9.796;2022-10-18T02:26:44;8.82;;;0.50;;
20367;SDS011;10343;52.402;9.796;2022-10-18T02:29:12;7.93;;;0.77;;
20367;SDS011;10343;52.402;9.796;2022-10-18T02:31:42;10.52;;;0.55;;
20367;SDS011;10343;52.402;9.796;2022-10-18T02:34:14;10.18;;;0.32;;
20367;SDS011;10343;52.402;9.796;2022-10-18T02:36:47;7.35;;;0.40;;
20367;SDS011;10343;52.402;9.796;2022-10-18T02:39:20;7.35;;;0.50;;
20367;SDS011;10343;52.402;9.796;2022-10-18T02:41:51;8.90;;;0.55;;
20367;SDS011;10343;52.402;9.796;2022-10-18T02:44:19;7.85;;;0.40;;
20367;SDS011;10343;52.402;9.796;2022-10-18T02:46:49;6.35;;;0.63;;
20367;SDS011;10343;52.402;9.796;2022-10-18T02:49:17;6.22;;;0.68;;
20367;SDS011;10343;52.402;9.796;2022-10-18T02:51:44;7.68;;;0.88;;
20367;SDS011;10343;52.402;9.796;2022-10-18T02:54:12;11.07;;;0.32;;
20367;SDS011;10343;52.402;9.796;2022-10-18T02:56:40;8.52;;;0.57;;
20367;SDS011;10343;52.402;9.796;2022-10-18T02:59:09;7.85;;;0.68;;
20367;SDS011;10343;52.402;9.796;2022-10-18T03:01:37;14.30;;;1.00;;
20367;SDS011;10343;52.402;9.796;2022-10-18T03:04:06;8.25;;;0.40;;
20367;SDS011;10343;52.402;9.796;2022-10-18T03:06:34;8.32;;;0.40;;
20367;SDS011;10343;52.402;9.796;2022-10-18T03:09:02;10.73;;;0.95;;
20367;SDS011;10343;52.402;9.796;2022-10-18T03:11:32;9.20;;;0.82;;
20367;SDS011;10343;52.402;9.796;2022-10-18T03:14:00;8.35;;;0.85;;
20367;SDS011;10343;52.402;9.796;2022-10-18T03:16:27;8.45;;;0.95;;
20367;SDS011;10343;52.402;9.796;2022-10-18T03:18:55;7.20;;;0.52;;
20367;SDS011;10343;52.402;9.796;2022-10-18T03:21:25;9.13;;;1.67;;
20367;SDS011;10343;52.402;9.796;2022-10-18T03:23:52;8.52;;;0.68;;
20367;SDS011;10343;52.402;9.796;2022-10-18T03:26:21;12.82;;;1.77;;
20367;SDS011;10343;52.402;9.796;2022-10-18T03:28:49;13.77;;;1.42;;
20367;SDS011;10343;52.402;9.796;2022-10-18T03:31:17;11.05;;;0.90;;
20367;SDS011;10343;52.402;9.796;2022-10-18T03:33:45;15.15;;;1.45;;
20367;SDS011;10343;52.402;9.796;2022-10-18T03:36:13;11.45;;;2.10;;
20367;SDS011;10343;52.402;9.796;2022-10-18T03:38:42;9.57;;;1.92;;
20367;SDS011;10343;52.402;9.796;2022-10-18T03:41:10;11.75;;;2.63;;
20367;SDS011;10343;52.402;9.796;2022-10-18T03:43:38;12.65;;;2.83;;
20367;SDS011;10343;52.402;9.796;2022-10-18T03:46:06;13.27;;;2.22;;
20367;SDS011;10343;52.402;9.796;2022-10-18T03:48:34;8.95;;;1.20;;
20367;SDS011;10343;52.402;9.796;2022-10-18T03:51:02;8.77;;;1.55;;
20367;SDS011;10343;52.402;9.796;2022-10-18T03:53:30;10.15;;;1.42;;
20367;SDS011;10343;52.402;9.796;2022-10-18T03:55:59;10.82;;;1.90;;
20367;SDS011;10343;52.402;9.796;2022-10-18T03:58:27;12.98;;;2.00;;
20367;SDS011;10343;52.402;9.796;2022-10-18T04:00:55;15.23;;;2.30;;
20367;SDS011;10343;52.402;9.796;2022-10-18T04:03:23;16.15;;;2.45;;
20367;SDS011;10343;52.402;9.796;2022-10-18T04:05:51;10.18;;;1.23;;
20367;SDS011;10343;52.402;9.796;2022-10-18T04:08:19;11.80;;;1.25;;
20367;SDS011;10343;52.402;9.796;2022-10-18T04:10:47;13.73;;;1.33;;
20367;SDS011;10343;52.402;9.796;2022-10-18T04:13:16;8.60;;;1.17;;
20367;SDS011;10343;52.402;9.796;2022-10-18T04:15:44;15.82;;;2.22;;
20367;SDS011;10343;52.402;9.796;2022-10-18T04:18:12;13.85;;;1.60;;
20367;SDS011;10343;52.402;9.796;2022-10-18T04:20:40;9.15;;;1.23;;
20367;SDS011;10343;52.402;9.796;2022-10-18T04:23:08;10.52;;;1.20;;
20367;SDS011;10343;52.402;9.796;2022-10-18T04:25:36;10.07;;;1.42;;
20367;SDS011;10343;52.402;9.796;2022-10-18T04:28:04;9.23;;;1.52;;
20367;SDS011;10343;52.402;9.796;2022-10-18T04:30:33;9.80;;;1.17;;
20367;SDS011;10343;52.402;9.796;2022-10-18T04:33:01;11.60;;;1.23;;
20367;SDS011;10343;52.402;9.796;2022-10-18T04:35:29;12.95;;;1.17;;
20367;SDS011;10343;52.402;9.796;2022-10-18T04:37:57;9.05;;;1.85;;
20367;SDS011;10343;52.402;9.796;2022-10-18T04:40:25;12.18;;;1.85;;
20367;SDS011;10343;52.402;9.796;2022-10-18T04:42:53;10.57;;;1.35;;
20367;SDS011;10343;52.402;9.796;2022-10-18T04:45:21;11.50;;;1.40;;
20367;SDS011;10343;52.402;9.796;2022-10-18T04:47:50;11.57;;;1.65;;
20367;SDS011;10343;52.402;9.796;2022-10-18T04:50:18;11.55;;;1.58;;
20367;SDS011;10343;52.402;9.796;2022-10-18T04:52:46;14.80;;;1.90;;
20367;SDS011;10343;52.402;9.796;2022-10-18T04:55:19;12.73;;;2.20;;
20367;SDS011;10343;52.402;9.796;2022-10-18T04:57:47;13.27;;;2.80;;
20367;SDS011;10343;52.402;9.796;2022-10-18T05:00:15;14.90;;;2.65;;
20367;SDS011;10343;52.402;9.796;2022-10-18T05:02:43;12.27;;;2.70;;
20367;SDS011;10343;52.402;9.796;2022-10-18T05:05:13;13.90;;;2.60;;
20367;SDS011;10343;52.402;9.796;2022-10-18T05:07:41;18.40;;;1.60;;
20367;SDS011;10343;52.402;9.796;2022-10-18T05:10:09;11.35;;;2.40;;
20367;SDS011;10343;52.402;9.796;2022-10-18T05:12:37;20.63;;;2.83;;
20367;SDS011;10343;52.402;9.796;2022-10-18T05:15:05;13.80;;;2.90;;
20367;SDS011;10343;52.402;9.796;2022-10-18T05:17:34;15.00;;;2.70;;
20367;SDS011;10343;52.402;9.796;2022-10-18T05:20:02;18.83;;;2.33;;
20367;SDS011;10343;52.402;9.796;2022-10-18T05:22:31;13.98;;;3.00;;
20367;SDS011;10343;52.402;9.796;2022-10-18T05:25:00;13.48;;;3.17;;
20367;SDS011;10343;52.402;9.796;2022-10-18T05:27:28;13.20;;;2.17;;
20367;SDS011;10343;52.402;9.796;2022-10-18T05:29:56;11.10;;;2.15;;
20367;SDS011;10343;52.402;9.796;2022-10-18T05:32:29;15.05;;;2.45;;
20367;SDS011;10343;52.402;9.796;2022-10-18T05:34:58;12.48;;;2.15;;
20367;SDS011;10343;52.402;9.796;2022-10-18T05:37:26;13.40;;;3.28;;
20367;SDS011;10343;52.402;9.796;2022-10-18T05:39:56;17.02;;;3.58;;
20367;SDS011;10343;52.402;9.796;2022-10-18T05:42:24;16.65;;;3.13;;
20367;SDS011;10343;52.402;9.796;2022-10-18T05:44:52;19.40;;;4.20;;
20367;SDS011;10343;52.402;9.796;2022-10-18T05:47:20;15.20;;;4.07;;
20367;SDS011;10343;52.402;9.796;2022-10-18T05:49:48;12.50;;;3.00;;
20367;SDS011;10343;52.402;9.796;2022-10-18T05:52:16;16.70;;;2.72;;
20367;SDS011;10343;52.402;9.796;2022-10-18T05:54:44;15.43;;;2.92;;
20367;SDS011;10343;52.402;9.796;2022-10-18T05:57:13;14.05;;;2.55;;
20367;SDS011;10343;52.402;9.796;2022-10-18T05:59:42;17.45;;;2.55;;
20367;SDS011;10343;52.402;9.796;2022-10-18T06:02:10;11.35;;;2.20;;
20367;SDS011;10343;52.402;9.796;2022-10-18T06:04:39;17.70;;;2.63;;
20367;SDS011;10343;52.402;9.796;2022-10-18T06:07:07;15.55;;;3.53;;
20367;SDS011;10343;52.402;9.796;2022-10-18T06:09:36;15.80;;;2.95;;
20367;SDS011;10343;52.402;9.796;2022-10-18T06:12:04;13.52;;;2.45;;
20367;SDS011;10343;52.402;9.796;2022-10-18T06:14:35;10.85;;;1.67;;
20367;SDS011;10343;52.402;9.796;2022-10-18T06:17:03;14.07;;;2.92;;
20367;SDS011;10343;52.402;9.796;2022-10-18T06:19:31;16.35;;;2.55;;
20367;SDS011;10343;52.402;9.796;2022-10-18T06:21:59;13.52;;;2.60;;
20367;SDS011;10343;52.402;9.796;2022-10-18T06:24:27;10.52;;;1.92;;
20367;SDS011;10343;52.402;9.796;2022-10-18T06:26:55;11.15;;;2.50;;
20367;SDS011;10343;52.402;9.796;2022-10-18T06:29:23;15.18;;;2.25;;
20367;SDS011;10343;52.402;9.796;2022-10-18T06:31:53;13.60;;;2.78;;
20367;SDS011;10343;52.402;9.796;2022-10-18T06:34:21;14.73;;;3.22;;
20367;SDS011;10343;52.402;9.796;2022-10-18T06:36:48;11.00;;;2.38;;
20367;SDS011;10343;52.402;9.796;2022-10-18T06:39:23;15.73;;;3.00;;
20367;SDS011;10343;52.402;9.796;2022-10-18T06:41:51;15.50;;;3.13;;
20367;SDS011;10343;52.402;9.796;2022-10-18T06:44:19;12.55;;;2.67;;
20367;SDS011;10343;52.402;9.796;2022-10-18T06:46:48;15.32;;;3.65;;
20367;SDS011;10343;52.402;9.796;2022-10-18T06:49:18;12.73;;;3.05;;
20367;SDS011;10343;52.402;9.796;2022-10-18T06:51:46;14.70;;;2.53;;
20367;SDS011;10343;52.402;9.796;2022-10-18T06:54:14;16.40;;;2.40;;
20367;SDS011;10343;52.402;9.796;2022-10-18T06:56:44;16.02;;;4.03;;
20367;SDS011;10343;52.402;9.796;2022-10-18T06:59:12;25.58;;;4.63;;
20367;SDS011;10343;52.402;9.796;2022-10-18T07:01:40;17.75;;;3.88;;
20367;SDS011;10343;52.402;9.796;2022-10-18T07:04:09;19.90;;;4.10;;
20367;SDS011;10343;52.402;9.796;2022-10-18T07:06:38;16.33;;;4.65;;
20367;SDS011;10343;52.402;9.796;2022-10-18T07:09:06;16.80;;;4.10;;
20367;SDS011;10343;52.402;9.796;2022-10-18T07:11:34;18.98;;;5.65;;
20367;SDS011;10343;52.402;9.796;2022-10-18T07:14:02;20.80;;;4.50;;
20367;SDS011;10343;52.402;9.796;2022-10-18T07:16:30;20.05;;;5.30;;
20367;SDS011;10343;52.402;9.796;2022-10-18T07:18:59;26.00;;;5.47;;
20367;SDS011;10343;52.402;9.796;2022-10-18T07:21:27;20.95;;;4.57;;
20367;SDS011;10343;52.402;9.796;2022-10-18T07:23:57;16.10;;;5.03;;
20367;SDS011;10343;52.402;9.796;2022-10-18T07:26:26;16.95;;;4.35;;
20367;SDS011;10343;52.402;9.796;2022-10-18T07:28:56;22.85;;;4.85;;
20367;SDS011;10343;52.402;9.796;2022-10-18T07:31:26;19.80;;;5.57;;
20367;SDS011;10343;52.402;9.796;2022-10-18T07:33:55;17.95;;;5.38;;
20367;SDS011;10343;52.402;9.796;2022-10-18T07:36:23;22.10;;;6.40;;
20367;SDS011;10343;52.402;9.796;2022-10-18T07:38:51;22.35;;;5.03;;
20367;SDS011;10343;52.402;9.796;2022-10-18T07:41:21;19.02;;;5.50;;
20367;SDS011;10343;52.402;9.796;2022-10-18T07:43:50;15.90;;;4.88;;
20367;SDS011;10343;52.402;9.796;2022-10-18T07:46:19;24.17;;;5.57;;
20367;SDS011;10343;52.402;9.796;2022-10-18T07:48:48;29.48;;;7.00;;
20367;SDS011;10343;52.402;9.796;2022-10-18T07:51:17;19.45;;;6.07;;
20367;SDS011;10343;52.402;9.796;2022-10-18T07:53:46;21.67;;;5.25;;
20367;SDS011;10343;52.402;9.796;2022-10-18T07:56:15;21.42;;;5.53;;
20367;SDS011;10343;52.402;9.796;2022-10-18T07:58:50;22.30;;;6.22;;
20367;SDS011;10343;52.402;9.796;2022-10-18T08:01:19;23.65;;;4.47;;
20367;SDS011;10343;52.402;9.796;2022-10-18T08:03:49;19.88;;;5.65;;
20367;SDS011;10343;52.402;9.796;2022-10-18T08:06:17;23.67;;;5.75;;
20367;SDS011;10343;52.402;9.796;2022-10-18T08:08:47;23.70;;;6.22;;
20367;SDS011;10343;52.402;9.796;2022-10-18T08:11:16;22.05;;;7.10;;
20367;SDS011;10343;52.402;9.796;2022-10-18T08:13:45;19.15;;;6.47;;
20367;SDS011;10343;52.402;9.796;2022-10-18T08:16:16;17.80;;;4.68;;
20367;SDS011;10343;52.402;9.796;2022-10-18T08:18:49;20.20;;;6.93;;
20367;SDS011;10343;52.402;9.796;2022-10-18T08:21:18;22.88;;;6.60;;
20367;SDS011;10343;52.402;9.796;2022-10-18T08:23:47;21.20;;;7.00;;
20367;SDS011;10343;52.402;9.796;2022-10-18T08:26:17;25.67;;;7.43;;
20367;SDS011;10343;52.402;9.796;2022-10-18T08:28:46;25.90;;;7.47;;
20367;SDS011;10343;52.402;9.796;2022-10-18T08:31:36;25.10;;;8.00;;
20367;SDS011;10343;52.402;9.796;2022-10-18T08:34:11;21.73;;;6.35;;
20367;SDS011;10343;52.402;9.796;2022-10-18T08:36:45;23.25;;;6.43;;
20367;SDS011;10343;52.402;9.796;2022-10-18T08:39:13;23.17;;;6.78;;
20367;SDS011;10343;52.402;9.796;2022-10-18T08:41:46;21.33;;;5.28;;
20367;SDS011;10343;52.402;9.796;2022-10-18T08:44:38;24.85;;;6.55;;
20367;SDS011;10343;52.402;9.796;2022-10-18T08:47:12;18.48;;;3.17;;
20367;SDS011;10343;52.402;9.796;2022-10-18T08:49:44;20.20;;;3.88;;
20367;SDS011;10343;52.402;9.796;2022-10-18T08:52:18;17.77;;;4.18;;
20367;SDS011;10343;52.402;9.796;2022-10-18T08:54:57;15.48;;;4.30;;
20367;SDS011;10343;52.402;9.796;2022-10-18T08:57:29;18.40;;;3.95;;
20367;SDS011;10343;52.402;9.796;2022-10-18T08:59:58;20.98;;;3.70;;
20367;SDS011;10343;52.402;9.796;2022-10-18T09:02:35;16.60;;;2.80;;
20367;SDS011;10343;52.402;9.796;2022-10-18T09:05:18;14.73;;;3.00;;
20367;SDS011;10343;52.402;9.796;2022-10-18T09:08:00;12.80;;;2.10;;
20367;SDS011;10343;52.402;9.796;2022-10-18T09:10:57;16.30;;;2.13;;
20367;SDS011;10343;52.402;9.796;2022-10-18T09:13:50;19.48;;;1.95;;
20367;SDS011;10343;52.402;9.796;2022-10-18T09:16:31;12.10;;;1.27;;
20367;SDS011;10343;52.402;9.796;2022-10-18T09:19:10;15.32;;;2.33;;
20367;SDS011;10343;52.402;9.796;2022-10-18T09:21:55;18.00;;;2.33;;
20367;SDS011;10343;52.402;9.796;2022-10-18T09:24:35;17.98;;;2.42;;
20367;SDS011;10343;52.402;9.796;2022-10-18T09:27:10;16.80;;;1.73;;
20367;SDS011;10343;52.402;9.796;2022-10-18T09:29:52;16.52;;;1.95;;
20367;SDS011;10343;52.402;9.796;2022-10-18T09:32:31;15.38;;;3.17;;
20367;SDS011;10343;52.402;9.796;2022-10-18T09:35:12;13.93;;;1.80;;
20367;SDS011;10343;52.402;9.796;2022-10-18T09:37:43;13.60;;;2.00;;
20367;SDS011;10343;52.402;9.796;2022-10-18T09:40:13;19.80;;;2.83;;
20367;SDS011;10343;52.402;9.796;2022-10-18T09:42:49;22.10;;;4.15;;
20367;SDS011;10343;52.402;9.796;2022-10-18T09:45:23;20.08;;;3.15;;
20367;SDS011;10343;52.402;9.796;2022-10-18T09:47:57;26.00;;;2.45;;
20367;SDS011;10343;52.402;9.796;2022-10-18T09:50:33;14.25;;;1.70;;
20367;SDS011;10343;52.402;9.796;2022-10-18T09:53:06;12.80;;;1.95;;
20367;SDS011;10343;52.402;9.796;2022-10-18T09:55:41;16.05;;;1.52;;
20367;SDS011;10343;52.402;9.796;2022-10-18T09:58:20;12.07;;;1.35;;
20367;SDS011;10343;52.402;9.796;2022-10-18T10:00:58;15.23;;;2.50;;
20367;SDS011;10343;52.402;9.796;2022-10-18T10:03:33;18.67;;;2.53;;
20367;SDS011;10343;52.402;9.796;2022-10-18T10:06:13;17.55;;;1.98;;
20367;SDS011;10343;52.402;9.796;2022-10-18T10:08:45;12.35;;;1.73;;
20367;SDS011;10343;52.402;9.796;2022-10-18T10:11:34;14.27;;;2.30;;
20367;SDS011;10343;52.402;9.796;2022-10-18T10:14:08;16.77;;;3.17;;
20367;SDS011;10343;52.402;9.796;2022-10-18T10:16:45;14.90;;;2.28;;
20367;SDS011;10343;52.402;9.796;2022-10-18T10:19:15;11.40;;;1.65;;
20367;SDS011;10343;52.402;9.796;2022-10-18T10:21:47;15.27;;;2.08;;
20367;SDS011;10343;52.402;9.796;2022-10-18T10:24:18;16.48;;;2.33;;
20367;SDS011;10343;52.402;9.796;2022-10-18T10:26:59;11.88;;;0.50;;
20367;SDS011;10343;52.402;9.796;2022-10-18T10:32:23;11.10;;;1.48;;
20367;SDS011;10343;52.402;9.796;2022-10-18T10:34:58;9.95;;;0.45;;
20367;SDS011;10343;52.402;9.796;2022-10-18T10:37:28;14.55;;;0.75;;
20367;SDS011;10343;52.402;9.796;2022-10-18T10:40:04;10.80;;;0.55;;
20367;SDS011;10343;52.402;9.796;2022-10-18T10:43:01;14.45;;;0.65;;
20367;SDS011;10343;52.402;9.796;2022-10-18T10:45:55;8.80;;;0.80;;
20367;SDS011;10343;52.402;9.796;2022-10-18T10:48:26;14.88;;;0.50;;
20367;SDS011;10343;52.402;9.796;2022-10-18T10:51:00;12.85;;;0.75;;
20367;SDS011;10343;52.402;9.796;2022-10-18T10:53:39;14.30;;;0.57;;
20367;SDS011;10343;52.402;9.796;2022-10-18T10:56:17;9.65;;;0.40;;
20367;SDS011;10343;52.402;9.796;2022-10-18T10:58:49;12.82;;;0.95;;
20367;SDS011;10343;52.402;9.796;2022-10-18T11:03:58;8.80;;;0.85;;
20367;SDS011;10343;52.402;9.796;2022-10-18T11:06:33;13.02;;;0.52;;
20367;SDS011;10343;52.402;9.796;2022-10-18T11:09:17;16.15;;;0.70;;
20367;SDS011;10343;52.402;9.796;2022-10-18T11:11:54;14.15;;;1.40;;
20367;SDS011;10343;52.402;9.796;2022-10-18T11:14:28;15.32;;;0.80;;
20367;SDS011;10343;52.402;9.796;2022-10-18T11:17:01;12.45;;;0.70;;
20367;SDS011;10343;52.402;9.796;2022-10-18T11:19:41;8.85;;;1.20;;
20367;SDS011;10343;52.402;9.796;2022-10-18T11:22:19;10.23;;;0.25;;
20367;SDS011;10343;52.402;9.796;2022-10-18T11:24:52;8.73;;;0.43;;
20367;SDS011;10343;52.402;9.796;2022-10-18T11:27:21;6.28;;;0.10;;
20367;SDS011;10343;52.402;9.796;2022-10-18T11:29:59;10.57;;;0.30;;
20367;SDS011;10343;52.402;9.796;2022-10-18T11:32:39;6.03;;;0.10;;
20367;SDS011;10343;52.402;9.796;2022-10-18T11:35:20;5.57;;;0.10;;
20367;SDS011;10343;52.402;9.796;2022-10-18T11:38:03;11.65;;;0.10;;
20367;SDS011;10343;52.402;9.796;2022-10-18T11:40:46;6.60;;;0.20;;
20367;SDS011;10343;52.402;9.796;2022-10-18T11:43:26;3.78;;;0.10;;
20367;SDS011;10343;52.402;9.796;2022-10-18T11:46:31;7.50;;;0.65;;
20367;SDS011;10343;52.402;9.796;2022-10-18T11:52:12;7.10;;;0.10;;
20367;SDS011;10343;52.402;9.796;2022-10-18T11:54:51;6.63;;;0.10;;
20367;SDS011;10343;52.402;9.796;2022-10-18T11:57:34;7.60;;;0.22;;
20367;SDS011;10343;52.402;9.796;2022-10-18T12:00:18;6.63;;;0.10;;
20367;SDS011;10343;52.402;9.796;2022-10-18T12:03:01;8.65;;;0.10;;
20367;SDS011;10343;52.402;9.796;2022-10-18T12:05:42;7.20;;;0.00;;
20367;SDS011;10343;52.402;9.796;2022-10-18T12:08:12;8.68;;;0.05;;
20367;SDS011;10343;52.402;9.796;2022-10-18T12:10:44;7.88;;;0.10;;
20367;SDS011;10343;52.402;9.796;2022-10-18T12:13:34;5.32;;;0.20;;
20367;SDS011;10343;52.402;9.796;2022-10-18T12:16:07;8.82;;;0.10;;
20367;SDS011;10343;52.402;9.796;2022-10-18T12:18:40;8.45;;;0.10;;
20367;SDS011;10343;52.402;9.796;2022-10-18T12:21:15;7.40;;;0.10;;
20367;SDS011;10343;52.402;9.796;2022-10-18T12:23:51;6.82;;;0.10;;
20367;SDS011;10343;52.402;9.796;2022-10-18T12:26:22;8.50;;;0.10;;
20367;SDS011;10343;52.402;9.796;2022-10-18T12:28:57;4.05;;;0.10;;
20367;SDS011;10343;52.402;9.796;2022-10-18T12:31:33;8.10;;;0.10;;
20367;SDS011;10343;52.402;9.796;2022-10-18T12:34:09;7.32;;;0.10;;
20367;SDS011;10343;52.402;9.796;2022-10-18T12:39:58;11.00;;;0.47;;
20367;SDS011;10343;52.402;9.796;2022-10-18T12:42:39;4.57;;;0.20;;
20367;SDS011;10343;52.402;9.796;2022-10-18T12:47:59;9.75;;;0.00;;
20367;SDS011;10343;52.402;9.796;2022-10-18T12:50:32;4.13;;;0.00;;
20367;SDS011;10343;52.402;9.796;2022-10-18T12:53:03;2.58;;;0.00;;
20367;SDS011;10343;52.402;9.796;2022-10-18T12:55:43;3.28;;;0.00;;
20367;SDS011;10343;52.402;9.796;2022-10-18T13:01:07;1.67;;;0.00;;
20367;SDS011;10343;52.402;9.796;2022-10-18T13:06:20;3.25;;;0.00;;
20367;SDS011;10343;52.402;9.796;2022-10-18T13:11:47;2.00;;;0.00;;
20367;SDS011;10343;52.402;9.796;2022-10-18T13:14:28;2.40;;;0.00;;
20367;SDS011;10343;52.402;9.796;2022-10-18T13:17:28;3.38;;;0.00;;
20367;SDS011;10343;52.402;9.796;2022-10-18T13:20:08;4.13;;;0.00;;
20367;SDS011;10343;52.402;9.796;2022-10-18T13:22:59;1.38;;;0.00;;
20367;SDS011;10343;52.402;9.796;2022-10-18T13:25:35;4.80;;;0.00;;
20367;SDS011;10343;52.402;9.796;2022-10-18T13:28:19;3.15;;;0.00;;
20367;SDS011;10343;52.402;9.796;2022-10-18T13:30:53;4.70;;;0.00;;
20367;SDS011;10343;52.402;9.796;2022-10-18T13:33:35;2.33;;;0.00;;
20367;SDS011;10343;52.402;9.796;2022-10-18T13:36:05;3.67;;;0.00;;
20367;SDS011;10343;52.402;9.796;2022-10-18T13:38:58;3.38;;;0.00;;
20367;SDS011;10343;52.402;9.796;2022-10-18T13:41:32;4.13;;;0.00;;
20367;SDS011;10343;52.402;9.796;2022-10-18T13:44:39;4.03;;;0.00;;
20367;SDS011;10343;52.402;9.796;2022-10-18T13:47:10;5.45;;;0.00;;
20367;SDS011;10343;52.402;9.796;2022-10-18T13:49:47;7.97;;;0.00;;
20367;SDS011;10343;52.402;9.796;2022-10-18T13:55:47;1.70;;;0.00;;
20367;SDS011;10343;52.402;9.796;2022-10-18T13:58:27;2.85;;;0.08;;
20367;SDS011;10343;52.402;9.796;2022-10-18T14:01:22;0.60;;;0.00;;
20367;SDS011;10343;52.402;9.796;2022-10-18T14:07:07;0.43;;;0.00;;
20367;SDS011;10343;52.402;9.796;2022-10-18T14:09:42;1.30;;;0.00;;
20367;SDS011;10343;52.402;9.796;2022-10-18T14:12:21;1.40;;;0.00;;
20367;SDS011;10343;52.402;9.796;2022-10-18T14:14:57;4.90;;;0.00;;
20367;SDS011;10343;52.402;9.796;2022-10-18T14:17:33;1.30;;;0.00;;
20367;SDS011;10343;52.402;9.796;2022-10-18T14:20:12;2.38;;;0.00;;
20367;SDS011;10343;52.402;9.796;2022-10-18T14:22:46;7.00;;;0.00;;
20367;SDS011;10343;52.402;9.796;2022-10-18T14:25:20;4.03;;;0.00;;
20367;SDS011;10343;52.402;9.796;2022-10-18T14:28:03;2.85;;;0.20;;
20367;SDS011;10343;52.402;9.796;2022-10-18T14:30:49;2.10;;;0.00;;
20367;SDS011;10343;52.402;9.796;2022-10-18T14:33:27;2.75;;;0.00;;
20367;SDS011;10343;52.402;9.796;2022-10-18T14:36:04;3.42;;;0.10;;
20367;SDS011;10343;52.402;9.796;2022-10-18T14:38:45;5.25;;;0.00;;
20367;SDS011;10343;52.402;9.796;2022-10-18T14:41:19;6.00;;;0.00;;
20367;SDS011;10343;52.402;9.796;2022-10-18T14:44:08;1.88;;;0.00;;
20367;SDS011;10343;52.402;9.796;2022-10-18T14:46:46;3.33;;;0.00;;
20367;SDS011;10343;52.402;9.796;2022-10-18T14:49:18;1.80;;;0.00;;
20367;SDS011;10343;52.402;9.796;2022-10-18T14:51:48;3.53;;;0.05;;
20367;SDS011;10343;52.402;9.796;2022-10-18T14:54:22;2.55;;;0.00;;
20367;SDS011;10343;52.402;9.796;2022-10-18T14:56:58;0.10;;;0.00;;
20367;SDS011;10343;52.402;9.796;2022-10-18T14:59:27;1.00;;;0.00;;
20367;SDS011;10343;52.402;9.796;2022-10-18T15:01:57;1.25;;;0.00;;
20367;SDS011;10343;52.402;9.796;2022-10-18T15:04:29;0.93;;;0.00;;
20367;SDS011;10343;52.402;9.796;2022-10-18T15:06:59;0.90;;;0.00;;
20367;SDS011;10343;52.402;9.796;2022-10-18T15:09:28;2.75;;;0.00;;
20367;SDS011;10343;52.402;9.796;2022-10-18T15:11:58;1.40;;;0.00;;
20367;SDS011;10343;52.402;9.796;2022-10-18T15:14:27;6.47;;;0.00;;
20367;SDS011;10343;52.402;9.796;2022-10-18T15:16:58;2.42;;;0.00;;
20367;SDS011;10343;52.402;9.796;2022-10-18T15:19:32;6.95;;;0.00;;
20367;SDS011;10343;52.402;9.796;2022-10-18T15:22:02;2.90;;;0.00;;
20367;SDS011;10343;52.402;9.796;2022-10-18T15:27:41;1.30;;;0.00;;
20367;SDS011;10343;52.402;9.796;2022-10-18T15:30:14;0.60;;;0.00;;
20367;SDS011;10343;52.402;9.796;2022-10-18T15:32:47;1.63;;;0.00;;
20367;SDS011;10343;52.402;9.796;2022-10-18T15:35:21;5.05;;;0.00;;
20367;SDS011;10343;52.402;9.796;2022-10-18T15:37:52;3.08;;;0.00;;
20367;SDS011;10343;52.402;9.796;2022-10-18T15:40:30;1.40;;;0.00;;
20367;SDS011;10343;52.402;9.796;2022-10-18T15:43:01;5.43;;;0.17;;
20367;SDS011;10343;52.402;9.796;2022-10-18T15:45:33;4.78;;;0.00;;
20367;SDS011;10343;52.402;9.796;2022-10-18T15:48:16;2.40;;;0.00;;
20367;SDS011;10343;52.402;9.796;2022-10-18T15:50:48;2.55;;;0.00;;